createdAt,value
2023-04-15T00:09:55.187Z,50.875927
2023-04-15T00:10:55.121Z,50.876099
2023-04-15T00:11:55.105Z,50.876144
2023-04-15T00:12:55.107Z,50.876110
2023-04-15T00:13:55.082Z,50.876110
2023-04-15T00:14:55.082Z,50.876110
2023-04-15T00:15:55.070Z,50.876110
2023-04-15T00:16:55.101Z,50.877373
2023-04-15T00:17:55.099Z,50.876751
2023-04-15T00:18:55.033Z,50.875736
2023-04-15T00:19:55.021Z,50.875832
2023-04-15T00:20:55.016Z,50.875832
2023-04-15T00:21:55.003Z,50.875832
2023-04-15T00:22:55.020Z,50.875832
2023-04-15T00:23:54.990Z,50.876118
2023-04-15T00:24:54.969Z,50.876053
2023-04-15T00:25:54.971Z,50.875771
2023-04-15T00:26:54.958Z,50.875553
2023-04-15T00:27:54.957Z,50.875340
2023-04-15T00:28:54.929Z,50.875469
2023-04-15T00:29:54.924Z,50.875805
2023-04-15T00:30:54.966Z,50.875973
2023-04-15T00:31:54.903Z,50.875652
2023-04-15T00:32:54.946Z,50.875771
2023-04-15T00:33:54.889Z,50.875679
2023-04-15T00:34:54.874Z,50.875679
2023-04-15T00:35:54.856Z,50.875614
2023-04-15T00:36:54.857Z,50.875572
2023-04-15T00:37:54.848Z,50.875523
2023-04-15T00:38:54.828Z,50.875450
2023-04-15T00:39:54.827Z,50.875504
2023-04-15T00:40:54.817Z,50.875557
2023-04-15T00:41:54.796Z,50.875572
2023-04-15T00:42:54.793Z,50.875698
2023-04-15T00:43:55.770Z,50.875698
2023-04-15T00:44:54.774Z,50.875698
2023-04-15T00:45:54.834Z,50.875698
2023-04-15T00:46:54.750Z,50.875698
2023-04-15T00:47:54.780Z,50.875698
2023-04-15T00:48:54.725Z,50.875698
2023-04-15T00:49:54.713Z,50.875698
2023-04-15T00:50:54.704Z,50.875698
2023-04-15T00:51:54.691Z,50.875698
2023-04-15T00:52:54.701Z,50.875698
2023-04-15T00:53:54.679Z,50.875698
2023-04-15T00:54:54.657Z,50.875912
2023-04-15T00:55:54.667Z,50.875820
2023-04-15T00:56:54.641Z,50.875916
2023-04-15T00:57:54.629Z,50.875786
2023-04-15T00:58:54.643Z,50.875744
2023-04-15T00:59:54.609Z,50.875656
2023-04-15T01:00:54.620Z,50.875294
2023-04-15T01:01:54.721Z,50.875546
2023-04-15T01:02:54.797Z,50.875267
2023-04-15T01:03:54.684Z,50.875515
2023-04-15T01:04:54.559Z,50.875515
2023-04-15T01:05:54.543Z,50.875515
2023-04-15T01:06:54.536Z,50.875515
2023-04-15T01:07:54.524Z,50.875515
2023-04-15T01:08:54.521Z,50.875515
2023-04-15T01:09:54.506Z,50.875515
2023-04-15T01:10:54.491Z,50.875515
2023-04-15T01:11:54.491Z,50.875515
2023-04-15T01:12:54.468Z,50.875515
2023-04-15T01:13:54.471Z,50.875515
2023-04-15T01:14:54.457Z,50.875515
2023-04-15T01:15:54.494Z,50.875515
2023-04-15T01:16:54.426Z,50.875515
2023-04-15T01:17:54.438Z,50.875515
2023-04-15T01:18:54.413Z,50.875515
2023-04-15T01:19:54.398Z,50.875515
2023-04-15T01:20:54.387Z,50.875515
2023-04-15T01:21:54.378Z,50.875515
2023-04-15T01:22:54.374Z,50.875515
2023-04-15T01:23:54.380Z,50.875515
2023-04-15T01:24:54.375Z,50.875515
2023-04-15T01:25:54.325Z,50.875515
2023-04-15T01:26:54.331Z,50.875515
2023-04-15T01:27:54.325Z,50.875515
2023-04-15T01:28:54.307Z,50.875515
2023-04-15T01:29:54.292Z,50.875515
2023-04-15T01:30:54.279Z,50.875515
2023-04-15T01:31:54.325Z,50.875515
2023-04-15T01:32:54.303Z,50.875515
2023-04-15T01:33:54.267Z,50.875515
2023-04-15T01:34:54.240Z,50.875515
2023-04-15T01:35:54.230Z,50.875515
2023-04-15T01:36:54.215Z,50.875515
2023-04-15T01:37:54.212Z,50.875515
2023-04-15T01:38:54.210Z,50.875515
2023-04-15T01:39:54.188Z,50.875515
2023-04-15T01:40:54.177Z,50.875515
2023-04-15T01:41:54.160Z,50.875515
2023-04-15T01:42:54.155Z,50.875515
2023-04-15T01:43:55.159Z,50.875515
2023-04-15T01:44:54.142Z,50.875515
2023-04-15T01:45:54.128Z,50.875515
2023-04-15T01:46:54.155Z,50.875515
2023-04-15T01:47:54.144Z,50.875515
2023-04-15T01:48:54.109Z,50.875515
2023-04-15T01:49:54.089Z,50.875515
2023-04-15T01:50:54.078Z,50.875515
2023-04-15T01:51:54.073Z,50.875515
2023-04-15T01:52:54.063Z,50.875648
2023-04-15T01:53:54.046Z,50.875675
2023-04-15T01:54:54.052Z,50.875782
2023-04-15T01:55:54.029Z,50.875568
2023-04-15T01:56:54.020Z,50.875473
2023-04-15T01:57:54.010Z,50.875450
2023-04-15T01:58:54.000Z,50.875797
2023-04-15T01:59:53.998Z,50.875809
2023-04-15T02:00:54.009Z,50.875809
2023-04-15T02:01:54.009Z,50.875809
2023-04-15T02:02:54.038Z,50.875809
2023-04-15T02:03:53.986Z,50.875809
2023-04-15T02:04:53.937Z,50.875809
2023-04-15T02:05:53.933Z,50.875809
2023-04-15T02:06:53.917Z,50.875809
2023-04-15T02:07:53.903Z,50.875809
2023-04-15T02:08:53.900Z,50.875809
2023-04-15T02:09:53.886Z,50.875809
2023-04-15T02:10:53.873Z,50.875809
2023-04-15T02:11:53.872Z,50.875809
2023-04-15T02:12:53.859Z,50.875809
2023-04-15T02:13:53.864Z,50.875809
2023-04-15T02:14:53.833Z,50.875809
2023-04-15T02:15:53.824Z,50.875809
2023-04-15T02:16:53.858Z,50.875809
2023-04-15T02:17:53.836Z,50.875809
2023-04-15T02:18:53.813Z,50.875809
2023-04-15T02:19:53.789Z,50.875809
2023-04-15T02:20:53.767Z,50.875809
2023-04-15T02:21:53.767Z,50.875809
2023-04-15T02:22:53.752Z,50.875809
2023-04-15T02:23:54.168Z,50.875809
2023-04-15T02:24:54.747Z,50.875809
2023-04-15T02:25:54.450Z,50.875809
2023-04-15T02:26:53.709Z,50.875809
2023-04-15T02:27:53.699Z,50.875809
2023-04-15T02:28:53.710Z,50.875809
2023-04-15T02:29:53.685Z,50.875690
2023-04-15T02:30:53.768Z,50.875736
2023-04-15T02:31:53.681Z,50.875729
2023-04-15T02:32:53.672Z,50.875729
2023-04-15T02:33:53.637Z,50.875729
2023-04-15T02:34:53.635Z,50.875729
2023-04-15T02:35:53.623Z,50.875729
2023-04-15T02:36:53.604Z,50.875729
2023-04-15T02:37:53.592Z,50.875729
2023-04-15T02:38:53.590Z,50.875729
2023-04-15T02:39:53.572Z,50.875729
2023-04-15T02:40:53.572Z,50.875729
2023-04-15T02:41:53.555Z,50.875690
2023-04-15T02:42:53.541Z,50.875710
2023-04-15T02:43:53.538Z,50.875824
2023-04-15T02:44:53.538Z,50.875427
2023-04-15T02:45:53.553Z,50.875450
2023-04-15T02:46:53.506Z,50.875362
2023-04-15T02:47:53.523Z,50.875477
2023-04-15T02:48:53.482Z,50.875237
2023-04-15T02:49:53.477Z,50.875214
2023-04-15T02:50:54.463Z,50.875195
2023-04-15T02:51:53.453Z,50.875210
2023-04-15T02:52:53.442Z,50.875244
2023-04-15T02:53:53.432Z,50.875271
2023-04-15T02:54:53.433Z,50.875286
2023-04-15T02:55:53.410Z,50.875259
2023-04-15T02:56:53.399Z,50.875198
2023-04-15T02:57:53.390Z,50.875240
2023-04-15T02:58:53.381Z,50.875309
2023-04-15T02:59:53.388Z,50.875328
2023-04-15T03:00:53.400Z,50.875298
2023-04-15T03:01:53.398Z,50.875263
2023-04-15T03:02:53.396Z,50.875256
2023-04-15T03:03:53.420Z,50.875523
2023-04-15T03:04:53.331Z,50.875664
2023-04-15T03:05:53.313Z,50.875610
2023-04-15T03:06:53.301Z,50.875687
2023-04-15T03:07:53.291Z,50.875340
2023-04-15T03:08:53.277Z,50.875320
2023-04-15T03:09:53.279Z,50.875374
2023-04-15T03:10:53.258Z,50.875145
2023-04-15T03:11:53.245Z,50.875122
2023-04-15T03:12:53.246Z,50.875465
2023-04-15T03:13:53.231Z,50.875542
2023-04-15T03:14:53.240Z,50.875309
2023-04-15T03:15:53.240Z,50.875172
2023-04-15T03:16:53.205Z,50.875278
2023-04-15T03:17:53.283Z,50.875889
2023-04-15T03:18:53.176Z,50.875656
2023-04-15T03:19:53.181Z,50.875374
2023-04-15T03:20:53.230Z,50.875389
2023-04-15T03:21:53.150Z,50.875637
2023-04-15T03:22:53.155Z,50.875992
2023-04-15T03:23:53.218Z,50.875706
2023-04-15T03:24:53.225Z,50.875603
2023-04-15T03:25:53.221Z,50.875648
2023-04-15T03:26:53.183Z,50.875584
2023-04-15T03:27:53.085Z,50.875637
2023-04-15T03:28:53.072Z,50.875675
2023-04-15T03:29:53.074Z,50.875423
2023-04-15T03:30:53.070Z,50.875492
2023-04-15T03:31:53.045Z,50.875534
2023-04-15T03:32:53.063Z,50.875439
2023-04-15T03:33:53.023Z,50.875500
2023-04-15T03:34:53.047Z,50.875324
2023-04-15T03:35:53.007Z,50.875340
2023-04-15T03:36:52.999Z,50.875355
2023-04-15T03:37:52.979Z,50.875584
2023-04-15T03:38:52.983Z,50.875515
2023-04-15T03:39:52.973Z,50.875065
2023-04-15T03:40:52.966Z,50.875011
2023-04-15T03:41:52.947Z,50.875084
2023-04-15T03:42:52.932Z,50.875034
2023-04-15T03:43:52.922Z,50.875042
2023-04-15T03:44:52.927Z,50.875099
2023-04-15T03:45:52.906Z,50.875172
2023-04-15T03:46:53.005Z,50.875149
2023-04-15T03:47:52.901Z,50.874931
2023-04-15T03:48:52.882Z,50.874966
2023-04-15T03:49:52.881Z,50.875099
2023-04-15T03:50:52.842Z,50.875294
2023-04-15T03:51:53.846Z,50.875015
2023-04-15T03:52:52.831Z,50.875031
2023-04-15T03:53:52.828Z,50.875008
2023-04-15T03:54:52.812Z,50.875008
2023-04-15T03:55:52.815Z,50.875629
2023-04-15T03:56:52.792Z,50.875679
2023-04-15T03:57:52.792Z,50.875504
2023-04-15T03:58:52.788Z,50.875465
2023-04-15T03:59:52.781Z,50.875561
2023-04-15T04:00:52.832Z,50.875481
2023-04-15T04:01:52.790Z,50.875622
2023-04-15T04:02:52.939Z,50.875446
2023-04-15T04:03:52.887Z,50.875317
2023-04-15T04:04:52.762Z,50.875446
2023-04-15T04:05:52.711Z,50.875469
2023-04-15T04:06:52.692Z,50.875599
2023-04-15T04:07:52.683Z,50.875542
2023-04-15T04:08:52.675Z,50.875443
2023-04-15T04:09:52.673Z,50.875553
2023-04-15T04:10:52.666Z,50.875980
2023-04-15T04:11:52.645Z,50.875721
2023-04-15T04:12:52.641Z,50.875526
2023-04-15T04:13:52.623Z,50.875576
2023-04-15T04:14:52.619Z,50.875458
2023-04-15T04:15:52.648Z,50.875553
2023-04-15T04:16:52.716Z,50.875591
2023-04-15T04:17:52.697Z,50.875484
2023-04-15T04:18:52.570Z,50.875576
2023-04-15T04:19:52.566Z,50.875443
2023-04-15T04:20:52.563Z,50.875458
2023-04-15T04:21:52.549Z,50.875454
2023-04-15T04:22:52.534Z,50.875496
2023-04-15T04:23:52.524Z,50.875423
2023-04-15T04:24:52.513Z,50.875515
2023-04-15T04:25:52.512Z,50.875614
2023-04-15T04:26:52.495Z,50.875492
2023-04-15T04:27:52.487Z,50.875496
2023-04-15T04:28:52.490Z,50.875473
2023-04-15T04:29:52.471Z,50.875599
2023-04-15T04:30:52.467Z,50.875614
2023-04-15T04:31:52.471Z,50.875637
2023-04-15T04:32:52.488Z,50.875618
2023-04-15T04:33:52.427Z,50.875412
2023-04-15T04:34:52.423Z,50.875504
2023-04-15T04:35:52.410Z,50.874401
2023-04-15T04:36:52.396Z,50.874401
2023-04-15T04:37:52.428Z,50.874401
2023-04-15T04:38:52.367Z,50.874401
2023-04-15T04:39:52.363Z,50.874401
2023-04-15T04:40:52.363Z,50.874401
2023-04-15T04:41:52.338Z,50.953323
2023-04-15T04:42:52.332Z,50.953323
2023-04-15T04:43:52.325Z,50.953323
2023-04-15T04:44:52.315Z,50.953323
2023-04-15T04:45:52.366Z,50.882694
2023-04-15T04:46:52.292Z,50.882549
2023-04-15T04:47:52.362Z,50.883022
2023-04-15T04:48:52.266Z,50.883648
2023-04-15T04:49:52.264Z,50.883648
2023-04-15T04:50:52.262Z,50.884880
2023-04-15T04:51:52.242Z,50.885868
2023-04-15T04:52:52.225Z,50.885548
2023-04-15T04:53:52.219Z,50.885479
2023-04-15T04:54:52.210Z,50.886139
2023-04-15T04:55:52.217Z,50.886520
2023-04-15T04:56:52.186Z,50.886829
2023-04-15T04:57:52.174Z,50.887318
2023-04-15T04:58:52.165Z,50.887417
2023-04-15T04:59:52.160Z,50.887421
2023-04-15T05:00:52.199Z,50.887421
2023-04-15T05:01:52.155Z,50.887421
2023-04-15T05:02:52.222Z,50.887421
2023-04-15T05:03:52.151Z,50.887421
2023-04-15T05:04:52.107Z,50.888897
2023-04-15T05:05:52.108Z,50.888897
2023-04-15T05:06:52.090Z,50.888897
2023-04-15T05:07:52.077Z,50.888897
2023-04-15T05:08:52.082Z,50.888897
2023-04-15T05:09:52.060Z,50.888897
2023-04-15T05:10:52.061Z,50.888897
2023-04-15T05:11:52.059Z,50.888897
2023-04-15T05:12:52.029Z,50.888897
2023-04-15T05:13:52.018Z,50.888897
2023-04-15T05:14:52.014Z,50.888897
2023-04-15T05:15:52.029Z,50.881950
2023-04-15T05:16:51.992Z,50.881886
2023-04-15T05:17:51.990Z,50.882072
2023-04-15T05:18:52.975Z,50.882339
2023-04-15T05:19:51.964Z,50.882618
2023-04-15T05:20:51.961Z,50.882889
2023-04-15T05:21:51.945Z,50.883904
2023-04-15T05:22:51.940Z,50.884220
2023-04-15T05:23:51.929Z,50.884396
2023-04-15T05:24:51.913Z,50.884083
2023-04-15T05:25:51.914Z,50.884560
2023-04-15T05:26:51.928Z,50.884560
2023-04-15T05:27:51.884Z,50.884560
2023-04-15T05:28:51.872Z,50.884560
2023-04-15T05:29:51.865Z,50.884560
2023-04-15T05:30:51.884Z,50.884560
2023-04-15T05:31:51.843Z,50.884560
2023-04-15T05:32:51.884Z,50.884560
2023-04-15T05:33:51.831Z,50.884560
2023-04-15T05:34:51.812Z,50.884560
2023-04-15T05:35:51.817Z,50.884560
2023-04-15T05:36:51.803Z,50.884560
2023-04-15T05:37:51.785Z,50.874908
2023-04-15T05:38:51.773Z,50.874977
2023-04-15T05:39:51.775Z,50.874947
2023-04-15T05:40:51.763Z,50.874947
2023-04-15T05:41:51.746Z,50.874947
2023-04-15T05:42:51.743Z,50.888611
2023-04-15T05:43:51.725Z,50.889088
2023-04-15T05:44:51.714Z,50.889107
2023-04-15T05:45:51.743Z,50.889511
2023-04-15T05:46:51.692Z,50.889519
2023-04-15T05:47:51.706Z,50.874977
2023-04-15T05:48:51.668Z,50.875168
2023-04-15T05:49:51.662Z,50.875389
2023-04-15T05:50:51.667Z,50.875099
2023-04-15T05:51:51.653Z,50.875320
2023-04-15T05:52:51.638Z,50.875221
2023-04-15T05:53:51.626Z,50.875080
2023-04-15T05:54:51.615Z,50.875221
2023-04-15T05:55:51.610Z,50.875282
2023-04-15T05:56:51.593Z,50.875385
2023-04-15T05:57:51.586Z,50.875401
2023-04-15T05:58:53.690Z,50.875580
2023-04-15T05:59:51.573Z,50.875351
2023-04-15T06:00:51.561Z,50.875153
2023-04-15T06:01:51.556Z,50.875153
2023-04-15T06:02:51.610Z,50.875153
2023-04-15T06:03:51.671Z,50.874882
2023-04-15T06:04:51.557Z,50.875042
2023-04-15T06:05:51.517Z,50.875450
2023-04-15T06:06:51.497Z,50.875404
2023-04-15T06:07:51.483Z,50.875015
2023-04-15T06:08:51.472Z,50.875214
2023-04-15T06:09:51.463Z,50.875233
2023-04-15T06:10:51.471Z,50.875301
2023-04-15T06:11:51.444Z,50.875443
2023-04-15T06:12:51.433Z,50.875328
2023-04-15T06:13:51.428Z,50.875504
2023-04-15T06:14:51.420Z,50.875404
2023-04-15T06:15:51.438Z,50.875511
2023-04-15T06:16:51.400Z,50.875351
2023-04-15T06:17:51.431Z,50.875523
2023-04-15T06:18:51.379Z,50.875523
2023-04-15T06:19:51.360Z,50.875523
2023-04-15T06:20:52.371Z,50.875523
2023-04-15T06:21:51.354Z,50.875523
2023-04-15T06:22:51.336Z,50.875523
2023-04-15T06:23:51.324Z,50.875523
2023-04-15T06:24:51.337Z,50.875523
2023-04-15T06:25:51.303Z,50.875523
2023-04-15T06:26:51.302Z,50.875523
2023-04-15T06:27:51.290Z,50.875523
2023-04-15T06:28:51.335Z,50.875523
2023-04-15T06:29:51.274Z,50.875523
2023-04-15T06:30:51.271Z,50.875523
2023-04-15T06:31:51.265Z,50.875523
2023-04-15T06:32:51.289Z,50.875523
2023-04-15T06:33:51.226Z,50.875523
2023-04-15T06:34:51.221Z,50.875523
2023-04-15T06:35:51.217Z,50.875523
2023-04-15T06:36:51.209Z,50.875523
2023-04-15T06:37:51.187Z,50.875523
2023-04-15T06:38:51.173Z,50.875523
2023-04-15T06:39:51.169Z,50.875523
2023-04-15T06:40:51.166Z,50.875523
2023-04-15T06:41:51.159Z,50.875523
2023-04-15T06:42:51.146Z,50.875523
2023-04-15T06:43:51.126Z,50.875523
2023-04-15T06:44:51.135Z,50.875523
2023-04-15T06:45:51.147Z,50.875523
2023-04-15T06:46:51.102Z,50.875523
2023-04-15T06:47:51.124Z,50.875320
2023-04-15T06:48:51.076Z,50.875294
2023-04-15T06:49:51.065Z,50.875126
2023-04-15T06:50:51.074Z,50.875126
2023-04-15T06:51:51.047Z,50.875397
2023-04-15T06:52:51.039Z,50.875439
2023-04-15T06:53:51.020Z,50.875439
2023-04-15T06:54:51.026Z,50.875320
2023-04-15T06:55:51.024Z,50.875385
2023-04-15T06:56:51.000Z,50.875366
2023-04-15T06:57:50.992Z,50.875393
2023-04-15T06:58:50.976Z,50.875252
2023-04-15T06:59:50.969Z,50.875309
2023-04-15T07:00:50.992Z,50.874203
2023-04-15T07:01:51.002Z,50.875641
2023-04-15T07:02:50.943Z,50.875580
2023-04-15T07:03:50.954Z,50.875671
2023-04-15T07:04:50.921Z,50.875435
2023-04-15T07:05:50.926Z,50.875343
2023-04-15T07:06:50.901Z,50.875446
2023-04-15T07:07:50.894Z,50.875446
2023-04-15T07:08:50.884Z,50.875446
2023-04-15T07:09:50.864Z,50.875446
2023-04-15T07:10:51.870Z,50.875446
2023-04-15T07:11:50.852Z,50.875446
2023-04-15T07:12:50.924Z,50.875446
2023-04-15T07:13:50.831Z,50.875446
2023-04-15T07:14:50.822Z,50.875446
2023-04-15T07:15:50.828Z,50.875446
2023-04-15T07:16:50.837Z,50.875446
2023-04-15T07:17:50.808Z,50.875446
2023-04-15T07:18:50.785Z,50.875446
2023-04-15T07:19:50.777Z,50.875446
2023-04-15T07:20:50.775Z,50.875446
2023-04-15T07:21:50.762Z,50.875446
2023-04-15T07:22:50.752Z,50.875446
2023-04-15T07:23:50.735Z,50.875446
2023-04-15T07:24:50.723Z,50.875446
2023-04-15T07:25:50.738Z,50.875446
2023-04-15T07:26:50.702Z,50.875446
2023-04-15T07:27:50.692Z,50.875446
2023-04-15T07:28:50.682Z,50.875446
2023-04-15T07:29:50.672Z,50.875446
2023-04-15T07:30:50.760Z,50.875446
2023-04-15T07:31:50.658Z,50.875446
2023-04-15T07:32:50.653Z,50.875446
2023-04-15T07:33:50.630Z,50.875446
2023-04-15T07:34:50.620Z,50.875446
2023-04-15T07:35:50.607Z,50.875446
2023-04-15T07:36:50.677Z,50.875446
2023-04-15T07:37:50.585Z,50.875446
2023-04-15T07:38:50.579Z,50.875446
2023-04-15T07:39:50.568Z,50.875446
2023-04-15T07:40:50.574Z,50.875446
2023-04-15T07:41:50.564Z,50.875446
2023-04-15T07:42:50.544Z,50.875446
2023-04-15T07:43:50.541Z,50.875446
2023-04-15T07:44:50.530Z,50.875446
2023-04-15T07:45:50.525Z,50.875446
2023-04-15T07:46:50.501Z,50.875446
2023-04-15T07:47:50.530Z,50.875446
2023-04-15T07:48:50.480Z,50.875446
2023-04-15T07:49:50.470Z,50.875446
2023-04-15T07:50:50.470Z,50.875446
2023-04-15T07:51:50.445Z,50.875446
2023-04-15T07:52:50.433Z,50.875446
2023-04-15T07:53:50.941Z,50.875446
2023-04-15T07:54:50.417Z,50.875446
2023-04-15T07:55:50.420Z,50.875446
2023-04-15T07:56:50.400Z,50.875446
2023-04-15T07:57:50.388Z,50.875446
2023-04-15T07:58:50.377Z,50.875446
2023-04-15T07:59:50.372Z,50.875446
2023-04-15T08:00:50.371Z,50.875446
2023-04-15T08:01:50.438Z,50.875446
2023-04-15T08:02:50.511Z,50.875446
2023-04-15T08:03:50.529Z,50.875446
2023-04-15T08:04:50.409Z,50.875446
2023-04-15T08:05:50.316Z,50.875446
2023-04-15T08:06:50.317Z,50.875446
2023-04-15T08:07:50.285Z,50.875446
2023-04-15T08:08:50.273Z,50.875446
2023-04-15T08:09:50.272Z,50.875446
2023-04-15T08:10:52.514Z,50.875446
2023-04-15T08:11:51.254Z,50.875446
2023-04-15T08:12:50.230Z,50.875446
2023-04-15T08:13:50.222Z,50.875446
2023-04-15T08:14:50.209Z,50.875446
2023-04-15T08:15:50.239Z,50.875446
2023-04-15T08:16:50.191Z,50.875446
2023-04-15T08:17:50.192Z,50.875446
2023-04-15T08:18:50.166Z,50.875446
2023-04-15T08:19:50.154Z,50.875446
2023-04-15T08:20:50.144Z,50.875446
2023-04-15T08:21:50.152Z,50.875446
2023-04-15T08:22:50.121Z,50.875446
2023-04-15T08:23:50.140Z,50.875446
2023-04-15T08:24:50.102Z,50.875446
2023-04-15T08:25:50.096Z,50.875446
2023-04-15T08:26:50.103Z,50.875446
2023-04-15T08:27:50.075Z,50.875446
2023-04-15T08:28:50.066Z,50.875446
2023-04-15T08:29:50.065Z,50.875446
2023-04-15T08:30:50.041Z,50.875446
2023-04-15T08:31:50.094Z,50.875446
2023-04-15T08:32:50.074Z,50.875446
2023-04-15T08:33:50.010Z,50.875446
2023-04-15T08:34:50.006Z,50.875446
2023-04-15T08:35:49.987Z,50.875446
2023-04-15T08:36:49.991Z,50.875446
2023-04-15T08:37:49.968Z,50.875446
2023-04-15T08:38:49.959Z,50.875446
2023-04-15T08:39:49.947Z,50.875446
2023-04-15T08:40:49.937Z,50.875446
2023-04-15T08:41:49.934Z,50.875446
2023-04-15T08:42:49.916Z,50.875446
2023-04-15T08:43:49.907Z,50.875446
2023-04-15T08:44:49.892Z,50.875446
2023-04-15T08:45:50.526Z,50.875446
2023-04-15T08:46:49.922Z,50.875446
2023-04-15T08:47:49.909Z,50.875446
2023-04-15T08:48:49.851Z,50.875446
2023-04-15T08:49:49.845Z,50.875446
2023-04-15T08:50:49.836Z,50.875446
2023-04-15T08:51:49.836Z,50.875446
2023-04-15T08:52:50.554Z,50.875446
2023-04-15T08:53:49.800Z,50.875446
2023-04-15T08:54:49.786Z,50.875446
2023-04-15T08:55:49.781Z,50.875446
2023-04-15T08:56:49.830Z,50.875446
2023-04-15T08:57:49.759Z,50.875446
2023-04-15T08:58:49.743Z,50.875446
2023-04-15T08:59:49.745Z,50.875446
2023-04-15T09:00:49.734Z,50.875446
2023-04-15T09:01:49.772Z,50.875446
2023-04-15T09:02:49.788Z,50.875446
2023-04-15T09:03:49.800Z,50.875446
2023-04-15T09:04:49.704Z,50.875446
2023-04-15T09:05:52.718Z,50.875446
2023-04-15T09:06:49.672Z,50.875446
2023-04-15T09:07:49.665Z,50.875446
2023-04-15T09:08:49.645Z,50.875446
2023-04-15T09:09:49.632Z,50.875446
2023-04-15T09:10:49.625Z,50.875446
2023-04-15T09:11:49.622Z,50.875446
2023-04-15T09:12:49.598Z,50.875446
2023-04-15T09:13:49.601Z,50.875446
2023-04-15T09:14:49.577Z,50.875446
2023-04-15T09:15:49.586Z,50.875446
2023-04-15T09:16:50.529Z,50.875446
2023-04-15T09:17:50.594Z,50.875446
2023-04-15T09:18:49.542Z,50.875446
2023-04-15T09:19:49.533Z,50.875446
2023-04-15T09:20:49.519Z,50.875446
2023-04-15T09:21:49.511Z,50.875446
2023-04-15T09:22:49.563Z,50.875446
2023-04-15T09:23:49.480Z,50.875446
2023-04-15T09:24:49.471Z,50.875446
2023-04-15T09:25:49.483Z,50.875446
2023-04-15T09:26:49.459Z,50.875446
2023-04-15T09:27:49.440Z,50.875446
2023-04-15T09:28:49.445Z,50.875446
2023-04-15T09:29:49.418Z,50.875446
2023-04-15T09:30:50.947Z,50.875446
2023-04-15T09:31:50.408Z,50.875446
2023-04-15T09:32:49.452Z,50.875446
2023-04-15T09:33:49.375Z,50.875446
2023-04-15T09:34:49.368Z,50.875446
2023-04-15T09:35:49.358Z,50.875446
2023-04-15T09:36:51.076Z,50.875446
2023-04-15T09:37:50.337Z,50.875446
2023-04-15T09:38:49.319Z,50.875446
2023-04-15T09:39:49.307Z,50.875446
2023-04-15T09:40:49.297Z,50.875446
2023-04-15T09:41:49.298Z,50.875446
2023-04-15T09:42:50.372Z,50.875446
2023-04-15T09:43:50.272Z,50.875446
2023-04-15T09:44:49.258Z,50.875446
2023-04-15T09:45:49.281Z,50.875446
2023-04-15T09:46:49.245Z,50.875446
2023-04-15T09:47:49.263Z,50.875446
2023-04-15T09:48:49.212Z,50.875446
2023-04-15T09:49:49.230Z,50.875446
2023-04-15T09:50:49.195Z,50.875446
2023-04-15T09:52:03.970Z,50.875446
2023-04-15T09:52:51.169Z,50.875446
2023-04-15T09:53:49.157Z,50.875446
2023-04-15T09:54:49.150Z,50.875446
2023-04-15T09:55:49.141Z,50.875446
2023-04-15T09:56:49.134Z,50.875446
2023-04-15T09:57:49.113Z,50.875446
2023-04-15T09:58:49.106Z,50.875446
2023-04-15T09:59:49.090Z,50.875446
2023-04-15T10:00:49.087Z,50.875446
2023-04-15T10:01:49.193Z,50.875446
2023-04-15T10:02:49.220Z,50.875446
2023-04-15T10:03:49.117Z,50.875446
2023-04-15T10:04:49.038Z,50.875446
2023-04-15T10:05:49.025Z,50.875446
2023-04-15T10:06:49.034Z,50.875446
2023-04-15T10:07:49.009Z,50.875446
2023-04-15T10:08:49.003Z,50.875446
2023-04-15T10:09:48.994Z,50.875446
2023-04-15T10:10:48.974Z,50.875446
2023-04-15T10:11:48.974Z,50.875446
2023-04-15T10:12:48.958Z,50.875446
2023-04-15T10:13:48.941Z,50.875446
2023-04-15T10:14:48.925Z,50.875446
2023-04-15T10:15:48.987Z,50.875446
2023-04-15T10:16:48.940Z,50.875446
2023-04-15T10:17:48.947Z,50.875446
2023-04-15T10:18:48.890Z,50.875446
2023-04-15T10:19:48.875Z,50.875446
2023-04-15T10:20:48.871Z,50.875446
2023-04-15T10:21:48.861Z,50.875446
2023-04-15T10:22:48.861Z,50.875446
2023-04-15T10:23:48.834Z,50.875446
2023-04-15T10:24:48.820Z,50.875446
2023-04-15T10:25:48.807Z,50.875446
2023-04-15T10:26:48.801Z,50.875446
2023-04-15T10:27:48.805Z,50.875446
2023-04-15T10:28:48.782Z,50.875446
2023-04-15T10:29:48.778Z,50.875446
2023-04-15T10:30:48.772Z,50.875446
2023-04-15T10:31:48.799Z,50.875446
2023-04-15T10:32:48.766Z,50.875446
2023-04-15T10:33:48.719Z,50.875446
2023-04-15T10:34:48.716Z,50.875446
2023-04-15T10:35:48.700Z,50.875446
2023-04-15T10:36:48.690Z,50.875446
2023-04-15T10:37:48.697Z,50.875446
2023-04-15T10:38:48.676Z,50.875446
2023-04-15T10:39:48.660Z,50.875446
2023-04-15T10:40:48.652Z,50.875446
2023-04-15T10:41:48.636Z,50.875446
2023-04-15T10:42:48.635Z,50.875446
2023-04-15T10:43:48.617Z,50.875252
2023-04-15T10:44:48.610Z,50.875324
2023-04-15T10:45:48.596Z,50.875423
2023-04-15T10:46:48.609Z,50.875309
2023-04-15T10:47:48.626Z,50.875332
2023-04-15T10:48:48.565Z,50.875526
2023-04-15T10:49:49.559Z,50.875694
2023-04-15T10:50:48.547Z,50.875298
2023-04-15T10:51:48.541Z,50.875374
2023-04-15T10:52:48.534Z,50.875370
2023-04-15T10:53:48.521Z,50.875416
2023-04-15T10:54:49.058Z,50.875431
2023-04-15T10:55:48.496Z,50.875347
2023-04-15T10:56:48.545Z,50.875252
2023-04-15T10:57:48.487Z,50.875568
2023-04-15T10:58:48.489Z,50.875889
2023-04-15T10:59:48.456Z,50.877022
2023-04-15T11:00:48.451Z,50.875729
2023-04-15T11:01:48.590Z,50.875214
2023-04-15T11:02:48.550Z,50.875401
2023-04-15T11:03:48.733Z,50.875427
2023-04-15T11:04:48.457Z,50.875488
2023-04-15T11:05:48.391Z,50.875408
2023-04-15T11:06:48.416Z,50.875423
2023-04-15T11:07:48.398Z,50.875412
2023-04-15T11:08:48.430Z,50.875515
2023-04-15T11:09:48.371Z,50.875366
2023-04-15T11:10:48.346Z,50.875336
2023-04-15T11:11:48.353Z,50.875366
2023-04-15T11:12:48.349Z,50.875389
2023-04-15T11:13:48.336Z,50.875423
2023-04-15T11:14:48.315Z,50.875359
2023-04-15T11:15:48.293Z,50.875404
2023-04-15T11:16:48.357Z,50.875343
2023-04-15T11:17:48.330Z,50.875397
2023-04-15T11:18:48.276Z,50.875401
2023-04-15T11:19:48.256Z,50.875408
2023-04-15T11:20:48.297Z,50.875328
2023-04-15T11:21:48.242Z,50.875305
2023-04-15T11:22:48.365Z,50.875408
2023-04-15T11:23:48.320Z,50.875275
2023-04-15T11:24:48.229Z,50.875462
2023-04-15T11:25:48.201Z,50.875610
2023-04-15T11:26:48.202Z,50.875431
2023-04-15T11:27:48.205Z,50.875347
2023-04-15T11:28:48.233Z,50.875263
2023-04-15T11:29:48.191Z,50.875370
2023-04-15T11:30:48.144Z,50.875416
2023-04-15T11:31:48.158Z,50.875477
2023-04-15T11:32:48.188Z,50.875393
2023-04-15T11:33:48.142Z,50.875381